sensor_id;sensor_type;location;lat;lon;timestamp;P1;durP1;ratioP1;P2;durP2;ratioP2
54937;SDS011;52756;52.826;6.214;2023-04-30T00:01:05;6.75;;;2.53;;
54937;SDS011;52756;52.826;6.214;2023-04-30T00:03:30;5.30;;;2.00;;
54937;SDS011;52756;52.826;6.214;2023-04-30T00:05:56;6.63;;;2.60;;
54937;SDS011;52756;52.826;6.214;2023-04-30T00:08:22;7.15;;;2.72;;
54937;SDS011;52756;52.826;6.214;2023-04-30T00:10:48;5.53;;;2.15;;
54937;SDS011;52756;52.826;6.214;2023-04-30T00:13:13;5.78;;;2.30;;
54937;SDS011;52756;52.826;6.214;2023-04-30T00:15:39;6.05;;;2.38;;
54937;SDS011;52756;52.826;6.214;2023-04-30T00:18:07;4.68;;;2.45;;
54937;SDS011;52756;52.826;6.214;2023-04-30T00:20:33;5.75;;;2.35;;
54937;SDS011;52756;52.826;6.214;2023-04-30T00:22:59;4.05;;;2.28;;
54937;SDS011;52756;52.826;6.214;2023-04-30T00:25:26;5.40;;;2.20;;
54937;SDS011;52756;52.826;6.214;2023-04-30T00:27:52;6.03;;;2.30;;
54937;SDS011;52756;52.826;6.214;2023-04-30T00:30:17;4.80;;;2.08;;
54937;SDS011;52756;52.826;6.214;2023-04-30T00:32:43;5.40;;;2.38;;
54937;SDS011;52756;52.826;6.214;2023-04-30T00:35:10;5.63;;;2.30;;
54937;SDS011;52756;52.826;6.214;2023-04-30T00:37:36;4.55;;;2.15;;
54937;SDS011;52756;52.826;6.214;2023-04-30T00:40:02;4.68;;;1.98;;
54937;SDS011;52756;52.826;6.214;2023-04-30T00:42:28;7.13;;;2.78;;
54937;SDS011;52756;52.826;6.214;2023-04-30T00:44:53;6.32;;;2.33;;
54937;SDS011;52756;52.826;6.214;2023-04-30T00:47:19;4.82;;;1.83;;
54937;SDS011;52756;52.826;6.214;2023-04-30T00:49:45;4.43;;;2.45;;
54937;SDS011;52756;52.826;6.214;2023-04-30T00:52:11;4.93;;;2.38;;
54937;SDS011;52756;52.826;6.214;2023-04-30T00:54:37;4.72;;;1.90;;
54937;SDS011;52756;52.826;6.214;2023-04-30T00:57:03;3.85;;;1.75;;
54937;SDS011;52756;52.826;6.214;2023-04-30T00:59:30;6.10;;;2.40;;
54937;SDS011;52756;52.826;6.214;2023-04-30T01:01:57;6.43;;;2.17;;
54937;SDS011;52756;52.826;6.214;2023-04-30T01:04:23;6.40;;;2.38;;
54937;SDS011;52756;52.826;6.214;2023-04-30T01:06:49;6.00;;;2.20;;
54937;SDS011;52756;52.826;6.214;2023-04-30T01:09:16;4.18;;;1.83;;
54937;SDS011;52756;52.826;6.214;2023-04-30T01:14:29;3.63;;;1.60;;
54937;SDS011;52756;52.826;6.214;2023-04-30T01:22:11;4.20;;;1.90;;
54937;SDS011;52756;52.826;6.214;2023-04-30T01:27:29;5.57;;;2.53;;
54937;SDS011;52756;52.826;6.214;2023-04-30T01:30:14;4.65;;;2.17;;
54937;SDS011;52756;52.826;6.214;2023-04-30T01:32:42;4.32;;;1.95;;
54937;SDS011;52756;52.826;6.214;2023-04-30T01:35:08;8.07;;;2.67;;
54937;SDS011;52756;52.826;6.214;2023-04-30T01:37:49;4.22;;;1.90;;
54937;SDS011;52756;52.826;6.214;2023-04-30T01:40:38;4.78;;;1.90;;
54937;SDS011;52756;52.826;6.214;2023-04-30T01:46:17;3.83;;;2.30;;
54937;SDS011;52756;52.826;6.214;2023-04-30T01:51:24;4.70;;;2.10;;
54937;SDS011;52756;52.826;6.214;2023-04-30T01:54:02;4.95;;;1.83;;
54937;SDS011;52756;52.826;6.214;2023-04-30T01:56:36;5.85;;;1.83;;
54937;SDS011;52756;52.826;6.214;2023-04-30T01:59:08;4.95;;;1.90;;
54937;SDS011;52756;52.826;6.214;2023-04-30T02:01:35;2.90;;;1.60;;
54937;SDS011;52756;52.826;6.214;2023-04-30T02:04:01;4.60;;;1.48;;
54937;SDS011;52756;52.826;6.214;2023-04-30T02:06:28;5.47;;;1.95;;
54937;SDS011;52756;52.826;6.214;2023-04-30T02:08:57;3.47;;;1.50;;
54937;SDS011;52756;52.826;6.214;2023-04-30T02:11:30;7.15;;;1.92;;
54937;SDS011;52756;52.826;6.214;2023-04-30T02:13:55;6.78;;;1.80;;
54937;SDS011;52756;52.826;6.214;2023-04-30T02:16:22;4.50;;;1.90;;
54937;SDS011;52756;52.826;6.214;2023-04-30T02:18:47;5.95;;;1.80;;
54937;SDS011;52756;52.826;6.214;2023-04-30T02:21:13;4.10;;;1.75;;
54937;SDS011;52756;52.826;6.214;2023-04-30T02:23:39;4.18;;;1.42;;
54937;SDS011;52756;52.826;6.214;2023-04-30T02:26:05;5.38;;;1.48;;
54937;SDS011;52756;52.826;6.214;2023-04-30T02:28:31;4.97;;;1.80;;
54937;SDS011;52756;52.826;6.214;2023-04-30T02:30:57;4.05;;;1.70;;
54937;SDS011;52756;52.826;6.214;2023-04-30T02:33:23;3.25;;;1.27;;
54937;SDS011;52756;52.826;6.214;2023-04-30T02:35:48;3.75;;;1.67;;
54937;SDS011;52756;52.826;6.214;2023-04-30T02:38:14;4.75;;;1.65;;
54937;SDS011;52756;52.826;6.214;2023-04-30T02:40:40;3.83;;;1.55;;
54937;SDS011;52756;52.826;6.214;2023-04-30T02:43:09;2.78;;;1.45;;
54937;SDS011;52756;52.826;6.214;2023-04-30T02:45:34;3.22;;;1.55;;
54937;SDS011;52756;52.826;6.214;2023-04-30T02:48:00;2.63;;;1.02;;
54937;SDS011;52756;52.826;6.214;2023-04-30T02:50:26;3.17;;;1.65;;
54937;SDS011;52756;52.826;6.214;2023-04-30T02:52:51;4.63;;;1.75;;
54937;SDS011;52756;52.826;6.214;2023-04-30T02:55:17;3.90;;;1.70;;
54937;SDS011;52756;52.826;6.214;2023-04-30T02:57:43;3.80;;;1.30;;
54937;SDS011;52756;52.826;6.214;2023-04-30T03:00:09;2.60;;;1.25;;
54937;SDS011;52756;52.826;6.214;2023-04-30T03:02:35;2.30;;;1.35;;
54937;SDS011;52756;52.826;6.214;2023-04-30T03:05:01;3.70;;;1.50;;
54937;SDS011;52756;52.826;6.214;2023-04-30T03:07:27;3.60;;;1.10;;
54937;SDS011;52756;52.826;6.214;2023-04-30T03:09:53;2.50;;;1.30;;
54937;SDS011;52756;52.826;6.214;2023-04-30T03:12:18;3.40;;;1.38;;
54937;SDS011;52756;52.826;6.214;2023-04-30T03:14:44;3.10;;;1.40;;
54937;SDS011;52756;52.826;6.214;2023-04-30T03:17:10;2.35;;;1.00;;
54937;SDS011;52756;52.826;6.214;2023-04-30T03:19:35;1.70;;;1.10;;
54937;SDS011;52756;52.826;6.214;2023-04-30T03:22:01;3.38;;;1.42;;
54937;SDS011;52756;52.826;6.214;2023-04-30T03:24:27;2.30;;;0.90;;
54937;SDS011;52756;52.826;6.214;2023-04-30T03:26:52;2.88;;;1.15;;
54937;SDS011;52756;52.826;6.214;2023-04-30T03:29:18;1.95;;;1.10;;
54937;SDS011;52756;52.826;6.214;2023-04-30T03:31:44;1.38;;;0.90;;
54937;SDS011;52756;52.826;6.214;2023-04-30T03:34:09;1.80;;;0.82;;
54937;SDS011;52756;52.826;6.214;2023-04-30T03:36:35;2.03;;;0.90;;
54937;SDS011;52756;52.826;6.214;2023-04-30T03:39:01;2.42;;;0.90;;
54937;SDS011;52756;52.826;6.214;2023-04-30T03:41:28;1.48;;;0.70;;
54937;SDS011;52756;52.826;6.214;2023-04-30T03:43:54;2.50;;;0.90;;
54937;SDS011;52756;52.826;6.214;2023-04-30T03:46:19;2.33;;;1.10;;
54937;SDS011;52756;52.826;6.214;2023-04-30T03:48:45;1.45;;;0.98;;
54937;SDS011;52756;52.826;6.214;2023-04-30T03:51:11;3.17;;;0.82;;
54937;SDS011;52756;52.826;6.214;2023-04-30T03:53:37;1.92;;;0.90;;
54937;SDS011;52756;52.826;6.214;2023-04-30T03:56:03;2.58;;;0.98;;
54937;SDS011;52756;52.826;6.214;2023-04-30T03:58:29;2.53;;;0.77;;
54937;SDS011;52756;52.826;6.214;2023-04-30T04:00:55;1.63;;;0.85;;
54937;SDS011;52756;52.826;6.214;2023-04-30T04:03:21;2.28;;;0.80;;
54937;SDS011;52756;52.826;6.214;2023-04-30T04:05:47;2.47;;;0.88;;
54937;SDS011;52756;52.826;6.214;2023-04-30T04:08:13;2.50;;;1.00;;
54937;SDS011;52756;52.826;6.214;2023-04-30T04:10:38;1.65;;;0.90;;
54937;SDS011;52756;52.826;6.214;2023-04-30T04:13:05;3.85;;;1.25;;
54937;SDS011;52756;52.826;6.214;2023-04-30T04:15:31;2.20;;;1.08;;
54937;SDS011;52756;52.826;6.214;2023-04-30T04:17:57;3.22;;;1.05;;
54937;SDS011;52756;52.826;6.214;2023-04-30T04:20:23;3.30;;;1.50;;
54937;SDS011;52756;52.826;6.214;2023-04-30T04:22:49;4.68;;;1.60;;
54937;SDS011;52756;52.826;6.214;2023-04-30T04:25:15;2.92;;;1.20;;
54937;SDS011;52756;52.826;6.214;2023-04-30T04:27:42;3.13;;;1.00;;
54937;SDS011;52756;52.826;6.214;2023-04-30T04:30:08;1.63;;;1.25;;
54937;SDS011;52756;52.826;6.214;2023-04-30T04:32:34;1.73;;;1.00;;
54937;SDS011;52756;52.826;6.214;2023-04-30T04:35:06;1.65;;;0.90;;
54937;SDS011;52756;52.826;6.214;2023-04-30T04:37:33;1.95;;;1.20;;
54937;SDS011;52756;52.826;6.214;2023-04-30T04:39:59;1.75;;;1.20;;
54937;SDS011;52756;52.826;6.214;2023-04-30T04:42:25;2.38;;;1.27;;
54937;SDS011;52756;52.826;6.214;2023-04-30T04:44:51;2.33;;;1.15;;
54937;SDS011;52756;52.826;6.214;2023-04-30T04:47:16;3.58;;;1.30;;
54937;SDS011;52756;52.826;6.214;2023-04-30T04:49:45;4.05;;;2.00;;
54937;SDS011;52756;52.826;6.214;2023-04-30T04:52:11;3.83;;;1.70;;
54937;SDS011;52756;52.826;6.214;2023-04-30T04:54:37;6.05;;;2.20;;
54937;SDS011;52756;52.826;6.214;2023-04-30T04:57:02;5.20;;;1.67;;
54937;SDS011;52756;52.826;6.214;2023-04-30T04:59:28;2.67;;;1.42;;
54937;SDS011;52756;52.826;6.214;2023-04-30T05:01:54;4.47;;;1.77;;
54937;SDS011;52756;52.826;6.214;2023-04-30T05:04:20;4.28;;;1.90;;
54937;SDS011;52756;52.826;6.214;2023-04-30T05:06:46;2.90;;;2.00;;
54937;SDS011;52756;52.826;6.214;2023-04-30T05:09:12;4.40;;;1.70;;
54937;SDS011;52756;52.826;6.214;2023-04-30T05:11:38;8.20;;;2.42;;
54937;SDS011;52756;52.826;6.214;2023-04-30T05:14:05;4.93;;;2.95;;
54937;SDS011;52756;52.826;6.214;2023-04-30T05:16:31;4.07;;;2.60;;
54937;SDS011;52756;52.826;6.214;2023-04-30T05:18:57;5.20;;;2.92;;
54937;SDS011;52756;52.826;6.214;2023-04-30T05:21:23;8.00;;;3.20;;
54937;SDS011;52756;52.826;6.214;2023-04-30T05:23:53;9.07;;;3.78;;
54937;SDS011;52756;52.826;6.214;2023-04-30T05:26:19;6.18;;;3.40;;
54937;SDS011;52756;52.826;6.214;2023-04-30T05:28:45;7.55;;;3.20;;
54937;SDS011;52756;52.826;6.214;2023-04-30T05:31:10;8.93;;;3.90;;
54937;SDS011;52756;52.826;6.214;2023-04-30T05:33:36;7.03;;;3.67;;
54937;SDS011;52756;52.826;6.214;2023-04-30T05:36:02;7.57;;;4.20;;
54937;SDS011;52756;52.826;6.214;2023-04-30T05:38:28;9.07;;;4.10;;
54937;SDS011;52756;52.826;6.214;2023-04-30T05:40:53;7.82;;;4.05;;
54937;SDS011;52756;52.826;6.214;2023-04-30T05:43:19;11.20;;;4.57;;
54937;SDS011;52756;52.826;6.214;2023-04-30T05:45:45;10.15;;;5.20;;
54937;SDS011;52756;52.826;6.214;2023-04-30T05:48:11;8.50;;;4.35;;
54937;SDS011;52756;52.826;6.214;2023-04-30T05:50:36;8.32;;;4.28;;
54937;SDS011;52756;52.826;6.214;2023-04-30T05:53:02;8.80;;;3.88;;
54937;SDS011;52756;52.826;6.214;2023-04-30T05:55:28;8.32;;;4.45;;
54937;SDS011;52756;52.826;6.214;2023-04-30T05:57:53;8.43;;;4.90;;
54937;SDS011;52756;52.826;6.214;2023-04-30T06:00:19;8.65;;;4.55;;
54937;SDS011;52756;52.826;6.214;2023-04-30T06:02:45;7.13;;;3.83;;
54937;SDS011;52756;52.826;6.214;2023-04-30T06:05:10;7.80;;;3.70;;
54937;SDS011;52756;52.826;6.214;2023-04-30T06:07:36;8.13;;;3.65;;
54937;SDS011;52756;52.826;6.214;2023-04-30T06:10:02;11.27;;;4.63;;
54937;SDS011;52756;52.826;6.214;2023-04-30T06:12:28;7.00;;;3.80;;
54937;SDS011;52756;52.826;6.214;2023-04-30T06:14:54;10.00;;;3.97;;
54937;SDS011;52756;52.826;6.214;2023-04-30T06:17:19;7.60;;;3.85;;
54937;SDS011;52756;52.826;6.214;2023-04-30T06:19:45;10.95;;;3.88;;
54937;SDS011;52756;52.826;6.214;2023-04-30T06:22:11;11.77;;;3.80;;
54937;SDS011;52756;52.826;6.214;2023-04-30T06:24:37;9.15;;;3.35;;
54937;SDS011;52756;52.826;6.214;2023-04-30T06:27:02;8.70;;;3.30;;
54937;SDS011;52756;52.826;6.214;2023-04-30T06:29:28;8.52;;;3.20;;
54937;SDS011;52756;52.826;6.214;2023-04-30T06:31:54;9.18;;;2.80;;
54937;SDS011;52756;52.826;6.214;2023-04-30T06:34:20;10.10;;;2.85;;
54937;SDS011;52756;52.826;6.214;2023-04-30T06:36:46;8.23;;;2.45;;
54937;SDS011;52756;52.826;6.214;2023-04-30T06:39:14;8.65;;;2.65;;
54937;SDS011;52756;52.826;6.214;2023-04-30T06:41:40;10.05;;;3.08;;
54937;SDS011;52756;52.826;6.214;2023-04-30T06:44:07;11.55;;;3.13;;
54937;SDS011;52756;52.826;6.214;2023-04-30T06:46:33;9.40;;;3.08;;
54937;SDS011;52756;52.826;6.214;2023-04-30T06:49:00;12.88;;;3.47;;
54937;SDS011;52756;52.826;6.214;2023-04-30T06:51:25;7.97;;;3.47;;
54937;SDS011;52756;52.826;6.214;2023-04-30T06:53:51;11.00;;;4.22;;
54937;SDS011;52756;52.826;6.214;2023-04-30T06:56:17;8.50;;;3.55;;
54937;SDS011;52756;52.826;6.214;2023-04-30T06:58:43;7.22;;;3.15;;
54937;SDS011;52756;52.826;6.214;2023-04-30T07:01:09;9.50;;;3.58;;
54937;SDS011;52756;52.826;6.214;2023-04-30T07:03:35;6.95;;;3.05;;
54937;SDS011;52756;52.826;6.214;2023-04-30T07:06:01;8.18;;;2.35;;
54937;SDS011;52756;52.826;6.214;2023-04-30T07:08:26;10.75;;;3.55;;
54937;SDS011;52756;52.826;6.214;2023-04-30T07:10:52;10.43;;;3.83;;
54937;SDS011;52756;52.826;6.214;2023-04-30T07:13:18;9.80;;;4.22;;
54937;SDS011;52756;52.826;6.214;2023-04-30T07:15:44;9.77;;;3.20;;
54937;SDS011;52756;52.826;6.214;2023-04-30T07:18:10;6.57;;;2.30;;
54937;SDS011;52756;52.826;6.214;2023-04-30T07:20:35;10.38;;;3.47;;
54937;SDS011;52756;52.826;6.214;2023-04-30T07:23:01;8.55;;;2.45;;
54937;SDS011;52756;52.826;6.214;2023-04-30T07:25:27;8.50;;;2.40;;
54937;SDS011;52756;52.826;6.214;2023-04-30T07:27:53;5.93;;;2.20;;
54937;SDS011;52756;52.826;6.214;2023-04-30T07:30:19;7.65;;;2.53;;
54937;SDS011;52756;52.826;6.214;2023-04-30T07:32:45;7.07;;;2.97;;
54937;SDS011;52756;52.826;6.214;2023-04-30T07:35:11;6.25;;;2.70;;
54937;SDS011;52756;52.826;6.214;2023-04-30T07:37:38;5.22;;;1.83;;
54937;SDS011;52756;52.826;6.214;2023-04-30T07:40:05;9.02;;;2.28;;
54937;SDS011;52756;52.826;6.214;2023-04-30T07:42:37;9.38;;;2.90;;
54937;SDS011;52756;52.826;6.214;2023-04-30T07:45:09;6.95;;;2.40;;
54937;SDS011;52756;52.826;6.214;2023-04-30T07:47:35;8.27;;;2.47;;
54937;SDS011;52756;52.826;6.214;2023-04-30T07:50:01;7.03;;;2.38;;
54937;SDS011;52756;52.826;6.214;2023-04-30T07:52:27;6.82;;;2.72;;
54937;SDS011;52756;52.826;6.214;2023-04-30T07:54:53;10.50;;;2.88;;
54937;SDS011;52756;52.826;6.214;2023-04-30T07:57:18;7.45;;;1.88;;
54937;SDS011;52756;52.826;6.214;2023-04-30T07:59:44;6.50;;;1.92;;
54937;SDS011;52756;52.826;6.214;2023-04-30T08:02:10;9.50;;;2.45;;
54937;SDS011;52756;52.826;6.214;2023-04-30T08:04:35;8.25;;;2.35;;
54937;SDS011;52756;52.826;6.214;2023-04-30T08:07:02;7.78;;;1.92;;
54937;SDS011;52756;52.826;6.214;2023-04-30T08:09:28;6.82;;;2.60;;
54937;SDS011;52756;52.826;6.214;2023-04-30T08:11:54;5.72;;;1.98;;
54937;SDS011;52756;52.826;6.214;2023-04-30T08:14:20;8.10;;;2.00;;
54937;SDS011;52756;52.826;6.214;2023-04-30T08:16:46;6.82;;;2.10;;
54937;SDS011;52756;52.826;6.214;2023-04-30T08:19:11;7.25;;;1.63;;
54937;SDS011;52756;52.826;6.214;2023-04-30T08:21:37;8.27;;;2.30;;
54937;SDS011;52756;52.826;6.214;2023-04-30T08:24:03;5.72;;;2.47;;
54937;SDS011;52756;52.826;6.214;2023-04-30T08:26:29;4.65;;;1.70;;
54937;SDS011;52756;52.826;6.214;2023-04-30T08:28:55;6.85;;;2.10;;
54937;SDS011;52756;52.826;6.214;2023-04-30T08:31:20;8.35;;;2.28;;
54937;SDS011;52756;52.826;6.214;2023-04-30T08:33:46;7.93;;;2.33;;
54937;SDS011;52756;52.826;6.214;2023-04-30T08:36:12;6.20;;;1.98;;
54937;SDS011;52756;52.826;6.214;2023-04-30T08:38:37;8.07;;;2.55;;
54937;SDS011;52756;52.826;6.214;2023-04-30T08:41:04;6.38;;;2.13;;
54937;SDS011;52756;52.826;6.214;2023-04-30T08:43:37;6.47;;;2.58;;
54937;SDS011;52756;52.826;6.214;2023-04-30T08:46:06;7.82;;;2.58;;
54937;SDS011;52756;52.826;6.214;2023-04-30T08:48:32;11.90;;;3.33;;
54937;SDS011;52756;52.826;6.214;2023-04-30T08:50:59;7.93;;;2.45;;
54937;SDS011;52756;52.826;6.214;2023-04-30T08:53:26;7.38;;;2.90;;
54937;SDS011;52756;52.826;6.214;2023-04-30T08:55:52;5.63;;;2.35;;
54937;SDS011;52756;52.826;6.214;2023-04-30T08:58:17;6.38;;;2.55;;
54937;SDS011;52756;52.826;6.214;2023-04-30T09:00:44;7.22;;;2.28;;
54937;SDS011;52756;52.826;6.214;2023-04-30T09:03:09;7.00;;;2.70;;
54937;SDS011;52756;52.826;6.214;2023-04-30T09:05:36;5.93;;;2.40;;
54937;SDS011;52756;52.826;6.214;2023-04-30T09:08:05;5.05;;;2.25;;
54937;SDS011;52756;52.826;6.214;2023-04-30T09:10:33;7.13;;;2.60;;
54937;SDS011;52756;52.826;6.214;2023-04-30T09:13:08;7.03;;;2.75;;
54937;SDS011;52756;52.826;6.214;2023-04-30T09:15:36;7.68;;;2.70;;
54937;SDS011;52756;52.826;6.214;2023-04-30T09:20:34;8.02;;;2.70;;
54937;SDS011;52756;52.826;6.214;2023-04-30T09:23:09;7.18;;;2.50;;
54937;SDS011;52756;52.826;6.214;2023-04-30T09:25:39;9.82;;;2.80;;
54937;SDS011;52756;52.826;6.214;2023-04-30T09:28:09;8.73;;;2.78;;
54937;SDS011;52756;52.826;6.214;2023-04-30T09:30:36;6.57;;;2.30;;
54937;SDS011;52756;52.826;6.214;2023-04-30T09:33:02;5.95;;;2.92;;
54937;SDS011;52756;52.826;6.214;2023-04-30T09:35:31;6.97;;;2.95;;
54937;SDS011;52756;52.826;6.214;2023-04-30T09:37:58;7.65;;;2.80;;
54937;SDS011;52756;52.826;6.214;2023-04-30T09:40:39;5.28;;;2.47;;
54937;SDS011;52756;52.826;6.214;2023-04-30T09:43:06;8.70;;;3.20;;
54937;SDS011;52756;52.826;6.214;2023-04-30T09:45:42;7.95;;;2.95;;
54937;SDS011;52756;52.826;6.214;2023-04-30T09:48:16;6.00;;;2.80;;
54937;SDS011;52756;52.826;6.214;2023-04-30T09:50:45;7.82;;;3.25;;
54937;SDS011;52756;52.826;6.214;2023-04-30T09:53:12;8.60;;;2.75;;
54937;SDS011;52756;52.826;6.214;2023-04-30T09:55:45;6.90;;;3.00;;
54937;SDS011;52756;52.826;6.214;2023-04-30T09:58:13;5.20;;;2.63;;
54937;SDS011;52756;52.826;6.214;2023-04-30T10:00:41;6.10;;;2.78;;
54937;SDS011;52756;52.826;6.214;2023-04-30T10:03:10;8.07;;;2.60;;
54937;SDS011;52756;52.826;6.214;2023-04-30T10:05:39;8.13;;;3.47;;
54937;SDS011;52756;52.826;6.214;2023-04-30T10:10:39;8.27;;;2.80;;
54937;SDS011;52756;52.826;6.214;2023-04-30T10:13:09;11.30;;;3.10;;
54937;SDS011;52756;52.826;6.214;2023-04-30T10:15:39;7.43;;;2.83;;
54937;SDS011;52756;52.826;6.214;2023-04-30T10:18:18;9.05;;;3.05;;
54937;SDS011;52756;52.826;6.214;2023-04-30T10:20:47;8.35;;;3.13;;
54937;SDS011;52756;52.826;6.214;2023-04-30T10:23:14;9.65;;;3.22;;
54937;SDS011;52756;52.826;6.214;2023-04-30T10:25:41;10.00;;;3.28;;
54937;SDS011;52756;52.826;6.214;2023-04-30T10:28:08;7.43;;;2.50;;
54937;SDS011;52756;52.826;6.214;2023-04-30T10:30:35;9.30;;;2.58;;
54937;SDS011;52756;52.826;6.214;2023-04-30T10:33:17;8.45;;;2.80;;
54937;SDS011;52756;52.826;6.214;2023-04-30T10:35:53;4.93;;;2.65;;
54937;SDS011;52756;52.826;6.214;2023-04-30T10:40:53;6.38;;;2.53;;
54937;SDS011;52756;52.826;6.214;2023-04-30T10:43:22;7.07;;;3.10;;
54937;SDS011;52756;52.826;6.214;2023-04-30T10:45:49;5.65;;;2.40;;
54937;SDS011;52756;52.826;6.214;2023-04-30T10:48:15;6.88;;;3.38;;
54937;SDS011;52756;52.826;6.214;2023-04-30T10:50:49;9.00;;;2.67;;
54937;SDS011;52756;52.826;6.214;2023-04-30T10:53:16;9.30;;;2.60;;
54937;SDS011;52756;52.826;6.214;2023-04-30T10:58:29;5.10;;;1.98;;
54937;SDS011;52756;52.826;6.214;2023-04-30T11:01:02;5.70;;;2.50;;
54937;SDS011;52756;52.826;6.214;2023-04-30T11:03:36;6.88;;;2.63;;
54937;SDS011;52756;52.826;6.214;2023-04-30T11:06:08;5.88;;;2.33;;
54937;SDS011;52756;52.826;6.214;2023-04-30T11:08:41;11.48;;;3.53;;
54937;SDS011;52756;52.826;6.214;2023-04-30T11:11:09;6.30;;;2.80;;
54937;SDS011;52756;52.826;6.214;2023-04-30T11:13:45;5.70;;;2.63;;
54937;SDS011;52756;52.826;6.214;2023-04-30T11:16:14;3.65;;;2.22;;
54937;SDS011;52756;52.826;6.214;2023-04-30T11:18:41;4.47;;;1.73;;
54937;SDS011;52756;52.826;6.214;2023-04-30T11:21:09;6.53;;;2.35;;
54937;SDS011;52756;52.826;6.214;2023-04-30T11:23:35;5.18;;;2.28;;
54937;SDS011;52756;52.826;6.214;2023-04-30T11:26:01;3.20;;;1.60;;
54937;SDS011;52756;52.826;6.214;2023-04-30T11:28:27;6.13;;;2.13;;
54937;SDS011;52756;52.826;6.214;2023-04-30T11:30:58;6.22;;;2.25;;
54937;SDS011;52756;52.826;6.214;2023-04-30T11:33:26;5.25;;;2.20;;
54937;SDS011;52756;52.826;6.214;2023-04-30T11:35:54;5.70;;;2.47;;
54937;SDS011;52756;52.826;6.214;2023-04-30T11:38:21;6.10;;;2.67;;
54937;SDS011;52756;52.826;6.214;2023-04-30T11:40:50;6.25;;;2.63;;
54937;SDS011;52756;52.826;6.214;2023-04-30T11:43:20;3.83;;;2.20;;
54937;SDS011;52756;52.826;6.214;2023-04-30T11:48:36;5.90;;;2.67;;
54937;SDS011;52756;52.826;6.214;2023-04-30T11:51:22;7.55;;;2.30;;
54937;SDS011;52756;52.826;6.214;2023-04-30T11:53:49;5.50;;;2.80;;
54937;SDS011;52756;52.826;6.214;2023-04-30T11:58:46;5.78;;;2.65;;
54937;SDS011;52756;52.826;6.214;2023-04-30T12:01:13;6.57;;;2.50;;
54937;SDS011;52756;52.826;6.214;2023-04-30T12:03:43;2.90;;;1.65;;
54937;SDS011;52756;52.826;6.214;2023-04-30T12:06:20;8.40;;;2.55;;
54937;SDS011;52756;52.826;6.214;2023-04-30T12:08:47;6.93;;;2.45;;
54937;SDS011;52756;52.826;6.214;2023-04-30T12:11:20;6.00;;;2.53;;
54937;SDS011;52756;52.826;6.214;2023-04-30T12:14:10;6.40;;;2.75;;
54937;SDS011;52756;52.826;6.214;2023-04-30T12:16:43;7.20;;;2.60;;
54937;SDS011;52756;52.826;6.214;2023-04-30T12:19:10;6.30;;;2.65;;
54937;SDS011;52756;52.826;6.214;2023-04-30T12:21:37;6.38;;;2.72;;
54937;SDS011;52756;52.826;6.214;2023-04-30T12:24:04;7.63;;;2.63;;
54937;SDS011;52756;52.826;6.214;2023-04-30T12:26:37;6.05;;;2.67;;
54937;SDS011;52756;52.826;6.214;2023-04-30T12:29:04;6.72;;;3.17;;
54937;SDS011;52756;52.826;6.214;2023-04-30T12:31:33;3.33;;;2.10;;
54937;SDS011;52756;52.826;6.214;2023-04-30T12:34:02;7.30;;;2.45;;
54937;SDS011;52756;52.826;6.214;2023-04-30T12:36:30;7.68;;;2.58;;
54937;SDS011;52756;52.826;6.214;2023-04-30T12:39:00;6.63;;;2.17;;
54937;SDS011;52756;52.826;6.214;2023-04-30T12:41:38;4.50;;;2.28;;
54937;SDS011;52756;52.826;6.214;2023-04-30T12:44:15;4.57;;;1.98;;
54937;SDS011;52756;52.826;6.214;2023-04-30T12:46:46;5.50;;;2.17;;
54937;SDS011;52756;52.826;6.214;2023-04-30T12:49:23;7.22;;;2.40;;
54937;SDS011;52756;52.826;6.214;2023-04-30T12:52:00;4.93;;;1.90;;
54937;SDS011;52756;52.826;6.214;2023-04-30T12:54:34;4.18;;;1.60;;
54937;SDS011;52756;52.826;6.214;2023-04-30T12:59:31;5.20;;;2.65;;
54937;SDS011;52756;52.826;6.214;2023-04-30T13:02:06;5.07;;;2.60;;
54937;SDS011;52756;52.826;6.214;2023-04-30T13:04:37;5.00;;;1.85;;
54937;SDS011;52756;52.826;6.214;2023-04-30T13:07:03;3.28;;;1.83;;
54937;SDS011;52756;52.826;6.214;2023-04-30T13:09:32;4.32;;;1.90;;
54937;SDS011;52756;52.826;6.214;2023-04-30T13:11:59;5.00;;;1.80;;
54937;SDS011;52756;52.826;6.214;2023-04-30T13:14:25;5.30;;;1.90;;
54937;SDS011;52756;52.826;6.214;2023-04-30T13:16:51;4.50;;;2.30;;
54937;SDS011;52756;52.826;6.214;2023-04-30T13:19:17;6.18;;;2.33;;
54937;SDS011;52756;52.826;6.214;2023-04-30T13:21:44;4.57;;;1.83;;
54937;SDS011;52756;52.826;6.214;2023-04-30T13:24:10;5.10;;;1.77;;
54937;SDS011;52756;52.826;6.214;2023-04-30T13:26:35;6.22;;;1.90;;
54937;SDS011;52756;52.826;6.214;2023-04-30T13:29:01;4.72;;;1.67;;
54937;SDS011;52756;52.826;6.214;2023-04-30T13:31:28;5.18;;;1.45;;
54937;SDS011;52756;52.826;6.214;2023-04-30T13:33:54;4.90;;;1.70;;
54937;SDS011;52756;52.826;6.214;2023-04-30T13:36:20;4.28;;;1.30;;
54937;SDS011;52756;52.826;6.214;2023-04-30T13:38:46;3.67;;;1.50;;
54937;SDS011;52756;52.826;6.214;2023-04-30T13:41:12;5.03;;;1.65;;
54937;SDS011;52756;52.826;6.214;2023-04-30T13:43:38;4.63;;;1.60;;
54937;SDS011;52756;52.826;6.214;2023-04-30T13:46:07;3.83;;;1.50;;
54937;SDS011;52756;52.826;6.214;2023-04-30T13:48:33;4.43;;;1.38;;
54937;SDS011;52756;52.826;6.214;2023-04-30T13:50:59;7.68;;;2.33;;
54937;SDS011;52756;52.826;6.214;2023-04-30T13:53:25;5.35;;;1.80;;
54937;SDS011;52756;52.826;6.214;2023-04-30T13:55:51;4.15;;;1.30;;
54937;SDS011;52756;52.826;6.214;2023-04-30T13:58:17;5.18;;;1.60;;
54937;SDS011;52756;52.826;6.214;2023-04-30T14:00:43;4.32;;;1.60;;
54937;SDS011;52756;52.826;6.214;2023-04-30T14:03:09;4.10;;;1.50;;
54937;SDS011;52756;52.826;6.214;2023-04-30T14:05:35;6.45;;;1.77;;
54937;SDS011;52756;52.826;6.214;2023-04-30T14:08:01;5.05;;;1.40;;
54937;SDS011;52756;52.826;6.214;2023-04-30T14:10:28;2.58;;;1.23;;
54937;SDS011;52756;52.826;6.214;2023-04-30T14:12:53;3.13;;;1.52;;
54937;SDS011;52756;52.826;6.214;2023-04-30T14:15:19;4.35;;;1.30;;
54937;SDS011;52756;52.826;6.214;2023-04-30T14:17:46;5.72;;;1.75;;
54937;SDS011;52756;52.826;6.214;2023-04-30T14:20:12;3.80;;;1.40;;
54937;SDS011;52756;52.826;6.214;2023-04-30T14:22:38;4.28;;;1.42;;
54937;SDS011;52756;52.826;6.214;2023-04-30T14:25:04;4.32;;;1.30;;
54937;SDS011;52756;52.826;6.214;2023-04-30T14:27:30;3.92;;;1.40;;
54937;SDS011;52756;52.826;6.214;2023-04-30T14:29:56;2.70;;;1.10;;
54937;SDS011;52756;52.826;6.214;2023-04-30T14:32:24;2.65;;;1.40;;
54937;SDS011;52756;52.826;6.214;2023-04-30T14:34:50;4.00;;;1.33;;
54937;SDS011;52756;52.826;6.214;2023-04-30T14:37:17;4.20;;;1.40;;
54937;SDS011;52756;52.826;6.214;2023-04-30T14:39:42;3.08;;;1.33;;
54937;SDS011;52756;52.826;6.214;2023-04-30T14:42:08;3.38;;;1.00;;
54937;SDS011;52756;52.826;6.214;2023-04-30T14:44:35;3.55;;;1.30;;
54937;SDS011;52756;52.826;6.214;2023-04-30T14:47:02;4.60;;;1.35;;
54937;SDS011;52756;52.826;6.214;2023-04-30T14:49:28;3.42;;;1.30;;
54937;SDS011;52756;52.826;6.214;2023-04-30T14:51:55;4.05;;;1.15;;
54937;SDS011;52756;52.826;6.214;2023-04-30T14:54:21;2.40;;;0.90;;
54937;SDS011;52756;52.826;6.214;2023-04-30T14:56:47;2.63;;;1.10;;
54937;SDS011;52756;52.826;6.214;2023-04-30T14:59:13;3.75;;;1.20;;
54937;SDS011;52756;52.826;6.214;2023-04-30T15:01:39;2.20;;;0.95;;
54937;SDS011;52756;52.826;6.214;2023-04-30T15:04:05;3.30;;;1.05;;
54937;SDS011;52756;52.826;6.214;2023-04-30T15:06:31;3.50;;;1.25;;
54937;SDS011;52756;52.826;6.214;2023-04-30T15:08:58;3.50;;;1.23;;
54937;SDS011;52756;52.826;6.214;2023-04-30T15:11:23;5.13;;;1.45;;
54937;SDS011;52756;52.826;6.214;2023-04-30T15:13:49;2.78;;;1.40;;
54937;SDS011;52756;52.826;6.214;2023-04-30T15:16:17;2.70;;;0.80;;
54937;SDS011;52756;52.826;6.214;2023-04-30T15:18:43;3.17;;;1.40;;
54937;SDS011;52756;52.826;6.214;2023-04-30T15:21:08;2.38;;;1.10;;
54937;SDS011;52756;52.826;6.214;2023-04-30T15:23:34;2.63;;;1.25;;